sensor_id;sensor_type;location;lat;lon;timestamp;P1;durP1;ratioP1;P2;durP2;ratioP2
54191;SDS011;40101;53.002;6.488;2024-03-23T00:51:56;21.95;;;4.88;;
54191;SDS011;40101;53.002;6.488;2024-03-23T00:54:22;16.45;;;4.72;;
54191;SDS011;40101;53.002;6.488;2024-03-23T00:56:48;17.52;;;3.53;;
54191;SDS011;40101;53.002;6.488;2024-03-23T00:59:14;18.10;;;4.32;;
54191;SDS011;40101;53.002;6.488;2024-03-23T01:01:39;24.35;;;5.80;;
54191;SDS011;40101;53.002;6.488;2024-03-23T01:04:05;22.65;;;4.15;;
54191;SDS011;40101;53.002;6.488;2024-03-23T01:06:31;15.80;;;4.15;;
54191;SDS011;40101;53.002;6.488;2024-03-23T01:08:56;15.23;;;3.58;;
54191;SDS011;40101;53.002;6.488;2024-03-23T01:11:22;22.70;;;5.00;;
54191;SDS011;40101;53.002;6.488;2024-03-23T01:13:48;27.50;;;4.88;;
54191;SDS011;40101;53.002;6.488;2024-03-23T01:16:13;22.80;;;4.45;;
54191;SDS011;40101;53.002;6.488;2024-03-23T01:18:39;23.52;;;4.07;;
54191;SDS011;40101;53.002;6.488;2024-03-23T01:21:05;26.13;;;5.47;;
54191;SDS011;40101;53.002;6.488;2024-03-23T01:23:30;25.52;;;5.10;;
54191;SDS011;40101;53.002;6.488;2024-03-23T01:25:56;25.38;;;4.00;;
54191;SDS011;40101;53.002;6.488;2024-03-23T01:28:22;18.23;;;5.03;;
54191;SDS011;40101;53.002;6.488;2024-03-23T01:30:48;23.20;;;4.25;;
54191;SDS011;40101;53.002;6.488;2024-03-23T01:33:17;27.85;;;4.35;;
54191;SDS011;40101;53.002;6.488;2024-03-23T01:35:42;25.33;;;5.28;;
54191;SDS011;40101;53.002;6.488;2024-03-23T01:38:11;17.23;;;3.72;;
54191;SDS011;40101;53.002;6.488;2024-03-23T01:40:37;24.90;;;3.90;;
54191;SDS011;40101;53.002;6.488;2024-03-23T01:43:06;20.00;;;4.20;;
54191;SDS011;40101;53.002;6.488;2024-03-23T01:45:38;25.20;;;6.38;;
54191;SDS011;40101;53.002;6.488;2024-03-23T01:48:08;28.67;;;4.50;;
54191;SDS011;40101;53.002;6.488;2024-03-23T01:50:36;17.80;;;4.22;;
54191;SDS011;40101;53.002;6.488;2024-03-23T01:53:02;18.98;;;4.80;;
54191;SDS011;40101;53.002;6.488;2024-03-23T01:55:38;23.58;;;6.75;;
54191;SDS011;40101;53.002;6.488;2024-03-23T01:58:06;21.20;;;4.55;;
54191;SDS011;40101;53.002;6.488;2024-03-23T02:00:32;29.58;;;5.25;;
54191;SDS011;40101;53.002;6.488;2024-03-23T02:03:00;11.98;;;4.38;;
54191;SDS011;40101;53.002;6.488;2024-03-23T02:05:26;24.33;;;4.78;;
54191;SDS011;40101;53.002;6.488;2024-03-23T02:07:52;25.80;;;5.93;;
54191;SDS011;40101;53.002;6.488;2024-03-23T02:10:18;29.40;;;5.00;;
54191;SDS011;40101;53.002;6.488;2024-03-23T02:12:44;20.08;;;6.70;;
54191;SDS011;40101;53.002;6.488;2024-03-23T02:15:09;24.65;;;5.15;;
54191;SDS011;40101;53.002;6.488;2024-03-23T02:17:35;21.20;;;4.82;;
54191;SDS011;40101;53.002;6.488;2024-03-23T02:20:02;23.17;;;4.35;;
54191;SDS011;40101;53.002;6.488;2024-03-23T02:22:39;22.30;;;4.53;;
54191;SDS011;40101;53.002;6.488;2024-03-23T02:25:15;19.13;;;4.65;;
54191;SDS011;40101;53.002;6.488;2024-03-23T02:30:41;19.15;;;4.18;;
54191;SDS011;40101;53.002;6.488;2024-03-23T02:33:07;22.00;;;3.90;;
54191;SDS011;40101;53.002;6.488;2024-03-23T02:35:33;20.90;;;4.32;;
54191;SDS011;40101;53.002;6.488;2024-03-23T02:38:01;31.92;;;4.43;;
54191;SDS011;40101;53.002;6.488;2024-03-23T02:40:28;22.63;;;6.05;;
54191;SDS011;40101;53.002;6.488;2024-03-23T02:42:53;27.02;;;4.78;;
54191;SDS011;40101;53.002;6.488;2024-03-23T02:45:19;25.95;;;5.05;;
54191;SDS011;40101;53.002;6.488;2024-03-23T02:47:45;20.70;;;4.07;;
54191;SDS011;40101;53.002;6.488;2024-03-23T02:50:11;19.95;;;3.38;;
54191;SDS011;40101;53.002;6.488;2024-03-23T02:52:37;23.65;;;4.60;;
54191;SDS011;40101;53.002;6.488;2024-03-23T02:55:03;19.33;;;4.32;;
54191;SDS011;40101;53.002;6.488;2024-03-23T02:57:29;12.85;;;4.10;;
54191;SDS011;40101;53.002;6.488;2024-03-23T02:59:55;25.65;;;4.20;;
54191;SDS011;40101;53.002;6.488;2024-03-23T03:02:21;20.95;;;3.67;;
54191;SDS011;40101;53.002;6.488;2024-03-23T03:04:47;26.30;;;3.92;;
54191;SDS011;40101;53.002;6.488;2024-03-23T03:07:13;12.77;;;4.03;;
54191;SDS011;40101;53.002;6.488;2024-03-23T03:09:39;25.70;;;4.63;;
54191;SDS011;40101;53.002;6.488;2024-03-23T03:12:05;15.57;;;3.10;;
54191;SDS011;40101;53.002;6.488;2024-03-23T03:14:31;15.43;;;4.18;;
54191;SDS011;40101;53.002;6.488;2024-03-23T03:16:57;22.20;;;4.47;;
54191;SDS011;40101;53.002;6.488;2024-03-23T03:19:23;18.05;;;3.75;;
54191;SDS011;40101;53.002;6.488;2024-03-23T03:21:48;12.43;;;3.40;;
54191;SDS011;40101;53.002;6.488;2024-03-23T03:24:14;22.13;;;3.53;;
54191;SDS011;40101;53.002;6.488;2024-03-23T03:26:40;28.90;;;4.57;;
54191;SDS011;40101;53.002;6.488;2024-03-23T03:29:06;19.17;;;5.63;;
54191;SDS011;40101;53.002;6.488;2024-03-23T03:31:31;16.55;;;3.83;;
54191;SDS011;40101;53.002;6.488;2024-03-23T03:33:57;20.30;;;5.13;;
54191;SDS011;40101;53.002;6.488;2024-03-23T03:36:23;20.58;;;3.78;;
54191;SDS011;40101;53.002;6.488;2024-03-23T03:38:48;18.98;;;2.72;;
54191;SDS011;40101;53.002;6.488;2024-03-23T03:41:14;16.13;;;4.07;;
54191;SDS011;40101;53.002;6.488;2024-03-23T03:43:40;8.65;;;3.05;;
54191;SDS011;40101;53.002;6.488;2024-03-23T03:46:06;16.05;;;3.42;;
54191;SDS011;40101;53.002;6.488;2024-03-23T03:48:33;21.27;;;3.35;;
54191;SDS011;40101;53.002;6.488;2024-03-23T03:50:59;24.00;;;4.03;;
54191;SDS011;40101;53.002;6.488;2024-03-23T03:53:25;13.07;;;4.00;;
54191;SDS011;40101;53.002;6.488;2024-03-23T03:55:51;15.77;;;3.10;;
54191;SDS011;40101;53.002;6.488;2024-03-23T03:58:17;22.80;;;4.00;;
54191;SDS011;40101;53.002;6.488;2024-03-23T04:00:43;18.08;;;4.00;;
54191;SDS011;40101;53.002;6.488;2024-03-23T04:03:09;16.85;;;4.07;;
54191;SDS011;40101;53.002;6.488;2024-03-23T04:05:34;21.08;;;3.83;;
54191;SDS011;40101;53.002;6.488;2024-03-23T04:08:00;24.85;;;4.40;;
54191;SDS011;40101;53.002;6.488;2024-03-23T04:10:26;20.17;;;4.30;;
54191;SDS011;40101;53.002;6.488;2024-03-23T04:12:52;17.90;;;4.00;;
54191;SDS011;40101;53.002;6.488;2024-03-23T04:15:19;16.50;;;4.55;;
54191;SDS011;40101;53.002;6.488;2024-03-23T04:17:45;18.50;;;4.03;;
54191;SDS011;40101;53.002;6.488;2024-03-23T04:20:11;13.93;;;4.80;;
54191;SDS011;40101;53.002;6.488;2024-03-23T04:22:38;15.07;;;3.40;;
54191;SDS011;40101;53.002;6.488;2024-03-23T04:25:05;14.70;;;3.40;;
54191;SDS011;40101;53.002;6.488;2024-03-23T04:27:38;11.85;;;4.22;;
54191;SDS011;40101;53.002;6.488;2024-03-23T04:30:06;16.48;;;3.15;;
54191;SDS011;40101;53.002;6.488;2024-03-23T04:32:38;11.10;;;3.50;;
54191;SDS011;40101;53.002;6.488;2024-03-23T04:35:05;16.02;;;4.15;;
54191;SDS011;40101;53.002;6.488;2024-03-23T04:37:34;7.18;;;3.45;;
54191;SDS011;40101;53.002;6.488;2024-03-23T04:40:01;11.23;;;3.72;;
54191;SDS011;40101;53.002;6.488;2024-03-23T04:42:28;12.27;;;3.47;;
54191;SDS011;40101;53.002;6.488;2024-03-23T04:44:54;25.67;;;4.45;;
54191;SDS011;40101;53.002;6.488;2024-03-23T04:47:20;19.45;;;4.03;;
54191;SDS011;40101;53.002;6.488;2024-03-23T04:49:45;15.50;;;4.35;;
54191;SDS011;40101;53.002;6.488;2024-03-23T04:52:11;14.35;;;3.78;;
54191;SDS011;40101;53.002;6.488;2024-03-23T04:54:37;18.70;;;3.67;;
54191;SDS011;40101;53.002;6.488;2024-03-23T04:57:05;25.52;;;3.85;;
54191;SDS011;40101;53.002;6.488;2024-03-23T04:59:31;15.52;;;3.13;;
54191;SDS011;40101;53.002;6.488;2024-03-23T05:01:57;15.27;;;3.17;;
54191;SDS011;40101;53.002;6.488;2024-03-23T05:04:23;13.20;;;2.92;;
54191;SDS011;40101;53.002;6.488;2024-03-23T05:06:48;17.88;;;4.32;;
54191;SDS011;40101;53.002;6.488;2024-03-23T05:09:14;15.25;;;3.10;;
54191;SDS011;40101;53.002;6.488;2024-03-23T05:11:40;12.13;;;2.75;;
54191;SDS011;40101;53.002;6.488;2024-03-23T05:14:06;20.17;;;3.08;;
54191;SDS011;40101;53.002;6.488;2024-03-23T05:16:35;12.32;;;2.50;;
54191;SDS011;40101;53.002;6.488;2024-03-23T05:19:00;13.02;;;2.63;;
54191;SDS011;40101;53.002;6.488;2024-03-23T05:21:26;17.38;;;3.63;;
54191;SDS011;40101;53.002;6.488;2024-03-23T05:23:55;12.45;;;3.03;;
54191;SDS011;40101;53.002;6.488;2024-03-23T05:26:21;16.67;;;4.18;;
54191;SDS011;40101;53.002;6.488;2024-03-23T05:28:48;20.00;;;2.53;;
54191;SDS011;40101;53.002;6.488;2024-03-23T05:31:23;19.42;;;3.10;;
54191;SDS011;40101;53.002;6.488;2024-03-23T05:33:49;9.98;;;2.72;;
54191;SDS011;40101;53.002;6.488;2024-03-23T05:36:15;15.82;;;2.83;;
54191;SDS011;40101;53.002;6.488;2024-03-23T05:38:42;15.98;;;3.00;;
54191;SDS011;40101;53.002;6.488;2024-03-23T05:41:08;14.38;;;3.28;;
54191;SDS011;40101;53.002;6.488;2024-03-23T05:43:33;15.30;;;3.67;;
54191;SDS011;40101;53.002;6.488;2024-03-23T05:46:00;15.48;;;3.10;;
54191;SDS011;40101;53.002;6.488;2024-03-23T05:48:29;19.58;;;2.97;;
54191;SDS011;40101;53.002;6.488;2024-03-23T05:50:55;14.90;;;3.70;;
54191;SDS011;40101;53.002;6.488;2024-03-23T05:53:23;18.38;;;3.20;;
54191;SDS011;40101;53.002;6.488;2024-03-23T05:55:49;14.45;;;2.55;;
54191;SDS011;40101;53.002;6.488;2024-03-23T05:58:16;15.35;;;3.65;;
54191;SDS011;40101;53.002;6.488;2024-03-23T06:00:43;7.15;;;2.80;;
54191;SDS011;40101;53.002;6.488;2024-03-23T06:03:09;21.90;;;4.20;;
54191;SDS011;40101;53.002;6.488;2024-03-23T06:05:36;14.25;;;2.83;;
54191;SDS011;40101;53.002;6.488;2024-03-23T06:08:05;10.63;;;2.53;;
54191;SDS011;40101;53.002;6.488;2024-03-23T06:10:31;16.77;;;2.55;;
54191;SDS011;40101;53.002;6.488;2024-03-23T06:12:57;17.75;;;2.70;;
54191;SDS011;40101;53.002;6.488;2024-03-23T06:15:24;15.18;;;2.75;;
54191;SDS011;40101;53.002;6.488;2024-03-23T06:17:50;14.10;;;3.22;;
54191;SDS011;40101;53.002;6.488;2024-03-23T06:20:16;18.83;;;2.65;;
54191;SDS011;40101;53.002;6.488;2024-03-23T06:22:41;13.05;;;3.78;;
54191;SDS011;40101;53.002;6.488;2024-03-23T06:25:07;11.63;;;2.35;;
54191;SDS011;40101;53.002;6.488;2024-03-23T06:27:33;11.95;;;2.00;;
54191;SDS011;40101;53.002;6.488;2024-03-23T06:29:59;14.40;;;3.17;;
54191;SDS011;40101;53.002;6.488;2024-03-23T06:32:25;14.70;;;2.40;;
54191;SDS011;40101;53.002;6.488;2024-03-23T06:34:52;13.40;;;2.30;;
54191;SDS011;40101;53.002;6.488;2024-03-23T06:37:18;16.00;;;2.97;;
54191;SDS011;40101;53.002;6.488;2024-03-23T06:39:45;11.77;;;2.38;;
54191;SDS011;40101;53.002;6.488;2024-03-23T06:42:11;15.00;;;3.45;;
54191;SDS011;40101;53.002;6.488;2024-03-23T06:44:37;18.25;;;2.25;;
54191;SDS011;40101;53.002;6.488;2024-03-23T06:47:03;10.50;;;1.75;;
54191;SDS011;40101;53.002;6.488;2024-03-23T06:49:29;9.32;;;2.22;;
54191;SDS011;40101;53.002;6.488;2024-03-23T06:51:54;14.07;;;1.88;;
54191;SDS011;40101;53.002;6.488;2024-03-23T06:54:20;13.90;;;2.10;;
54191;SDS011;40101;53.002;6.488;2024-03-23T06:56:46;9.68;;;2.88;;
54191;SDS011;40101;53.002;6.488;2024-03-23T06:59:11;13.85;;;2.53;;
54191;SDS011;40101;53.002;6.488;2024-03-23T07:01:37;6.90;;;1.80;;
54191;SDS011;40101;53.002;6.488;2024-03-23T07:04:03;5.07;;;1.30;;
54191;SDS011;40101;53.002;6.488;2024-03-23T07:06:32;6.50;;;1.60;;
54191;SDS011;40101;53.002;6.488;2024-03-23T07:08:58;10.05;;;2.08;;
54191;SDS011;40101;53.002;6.488;2024-03-23T07:11:24;6.97;;;1.77;;
54191;SDS011;40101;53.002;6.488;2024-03-23T07:13:52;10.80;;;1.70;;
54191;SDS011;40101;53.002;6.488;2024-03-23T07:16:19;6.55;;;1.90;;
54191;SDS011;40101;53.002;6.488;2024-03-23T07:18:45;8.80;;;2.65;;
54191;SDS011;40101;53.002;6.488;2024-03-23T07:21:11;10.70;;;3.10;;
54191;SDS011;40101;53.002;6.488;2024-03-23T07:23:37;15.27;;;2.17;;
54191;SDS011;40101;53.002;6.488;2024-03-23T07:26:04;11.88;;;2.83;;
54191;SDS011;40101;53.002;6.488;2024-03-23T07:28:30;9.23;;;2.80;;
54191;SDS011;40101;53.002;6.488;2024-03-23T07:31:07;9.00;;;2.03;;
54191;SDS011;40101;53.002;6.488;2024-03-23T07:33:34;12.18;;;2.30;;
54191;SDS011;40101;53.002;6.488;2024-03-23T07:36:01;10.00;;;2.33;;
54191;SDS011;40101;53.002;6.488;2024-03-23T07:38:27;5.50;;;2.45;;
54191;SDS011;40101;53.002;6.488;2024-03-23T07:41:04;10.18;;;2.67;;
54191;SDS011;40101;53.002;6.488;2024-03-23T07:43:39;11.55;;;2.40;;
54191;SDS011;40101;53.002;6.488;2024-03-23T07:46:05;8.93;;;5.22;;
54191;SDS011;40101;53.002;6.488;2024-03-23T07:48:31;7.97;;;5.05;;
54191;SDS011;40101;53.002;6.488;2024-03-23T07:50:58;7.05;;;3.47;;
54191;SDS011;40101;53.002;6.488;2024-03-23T07:53:28;5.88;;;2.08;;
54191;SDS011;40101;53.002;6.488;2024-03-23T07:55:55;8.65;;;2.85;;
54191;SDS011;40101;53.002;6.488;2024-03-23T07:58:29;8.57;;;2.40;;
54191;SDS011;40101;53.002;6.488;2024-03-23T08:00:56;6.20;;;2.60;;
54191;SDS011;40101;53.002;6.488;2024-03-23T08:03:28;7.00;;;2.45;;
54191;SDS011;40101;53.002;6.488;2024-03-23T08:05:53;7.88;;;2.10;;
54191;SDS011;40101;53.002;6.488;2024-03-23T08:08:19;8.75;;;1.77;;
54191;SDS011;40101;53.002;6.488;2024-03-23T08:10:48;9.60;;;2.63;;
54191;SDS011;40101;53.002;6.488;2024-03-23T08:13:14;4.63;;;1.80;;
54191;SDS011;40101;53.002;6.488;2024-03-23T08:15:40;9.00;;;1.95;;
54191;SDS011;40101;53.002;6.488;2024-03-23T08:18:06;5.65;;;1.83;;
54191;SDS011;40101;53.002;6.488;2024-03-23T08:20:32;6.55;;;1.92;;
54191;SDS011;40101;53.002;6.488;2024-03-23T08:22:58;22.33;;;2.22;;
54191;SDS011;40101;53.002;6.488;2024-03-23T08:25:23;10.23;;;2.22;;
54191;SDS011;40101;53.002;6.488;2024-03-23T08:27:49;8.55;;;2.97;;
54191;SDS011;40101;53.002;6.488;2024-03-23T08:30:15;9.35;;;2.63;;
54191;SDS011;40101;53.002;6.488;2024-03-23T08:32:41;6.40;;;1.70;;
54191;SDS011;40101;53.002;6.488;2024-03-23T08:35:07;16.25;;;2.80;;
54191;SDS011;40101;53.002;6.488;2024-03-23T08:37:33;12.60;;;2.95;;
54191;SDS011;40101;53.002;6.488;2024-03-23T08:39:59;6.50;;;3.00;;
54191;SDS011;40101;53.002;6.488;2024-03-23T08:42:24;9.43;;;4.45;;
54191;SDS011;40101;53.002;6.488;2024-03-23T08:44:50;16.40;;;9.43;;
54191;SDS011;40101;53.002;6.488;2024-03-23T08:47:18;13.30;;;5.80;;
54191;SDS011;40101;53.002;6.488;2024-03-23T08:49:44;9.98;;;2.30;;
54191;SDS011;40101;53.002;6.488;2024-03-23T08:52:10;5.53;;;1.95;;
54191;SDS011;40101;53.002;6.488;2024-03-23T08:54:36;5.00;;;2.10;;
54191;SDS011;40101;53.002;6.488;2024-03-23T08:57:01;7.57;;;2.83;;
54191;SDS011;40101;53.002;6.488;2024-03-23T08:59:27;6.43;;;1.73;;
54191;SDS011;40101;53.002;6.488;2024-03-23T09:01:53;4.22;;;1.88;;
54191;SDS011;40101;53.002;6.488;2024-03-23T09:04:19;6.60;;;2.13;;
54191;SDS011;40101;53.002;6.488;2024-03-23T09:06:44;13.15;;;2.78;;
54191;SDS011;40101;53.002;6.488;2024-03-23T09:09:10;7.18;;;1.85;;
54191;SDS011;40101;53.002;6.488;2024-03-23T09:11:36;10.50;;;3.90;;
54191;SDS011;40101;53.002;6.488;2024-03-23T09:14:05;10.07;;;1.92;;
54191;SDS011;40101;53.002;6.488;2024-03-23T09:16:30;8.00;;;1.83;;
54191;SDS011;40101;53.002;6.488;2024-03-23T09:18:56;10.68;;;2.15;;
54191;SDS011;40101;53.002;6.488;2024-03-23T09:21:22;10.70;;;2.28;;
54191;SDS011;40101;53.002;6.488;2024-03-23T09:23:48;7.95;;;1.58;;
54191;SDS011;40101;53.002;6.488;2024-03-23T09:26:14;7.00;;;1.33;;
54191;SDS011;40101;53.002;6.488;2024-03-23T09:28:40;10.15;;;2.22;;
54191;SDS011;40101;53.002;6.488;2024-03-23T09:31:06;7.90;;;1.38;;
54191;SDS011;40101;53.002;6.488;2024-03-23T09:33:33;3.58;;;1.80;;
54191;SDS011;40101;53.002;6.488;2024-03-23T09:36:02;7.72;;;1.92;;
54191;SDS011;40101;53.002;6.488;2024-03-23T09:38:29;5.65;;;1.95;;
54191;SDS011;40101;53.002;6.488;2024-03-23T09:40:55;6.97;;;2.08;;
54191;SDS011;40101;53.002;6.488;2024-03-23T09:43:21;6.57;;;1.25;;
54191;SDS011;40101;53.002;6.488;2024-03-23T09:46:13;9.43;;;1.60;;
54191;SDS011;40101;53.002;6.488;2024-03-23T09:48:39;5.30;;;1.63;;
54191;SDS011;40101;53.002;6.488;2024-03-23T09:51:08;5.68;;;1.40;;
54191;SDS011;40101;53.002;6.488;2024-03-23T09:53:37;10.05;;;2.10;;
54191;SDS011;40101;53.002;6.488;2024-03-23T10:07:36;10.70;;;2.50;;
54191;SDS011;40101;53.002;6.488;2024-03-23T10:13:03;8.48;;;2.08;;
54191;SDS011;40101;53.002;6.488;2024-03-23T10:15:36;9.13;;;1.67;;
54191;SDS011;40101;53.002;6.488;2024-03-23T10:23:54;7.80;;;1.27;;
54191;SDS011;40101;53.002;6.488;2024-03-23T10:26:20;10.57;;;1.75;;
54191;SDS011;40101;53.002;6.488;2024-03-23T10:28:54;8.90;;;2.05;;
54191;SDS011;40101;53.002;6.488;2024-03-23T10:31:37;7.25;;;2.40;;
54191;SDS011;40101;53.002;6.488;2024-03-23T10:34:12;6.50;;;1.70;;
54191;SDS011;40101;53.002;6.488;2024-03-23T10:36:58;6.60;;;1.88;;
54191;SDS011;40101;53.002;6.488;2024-03-23T10:39:34;5.18;;;1.85;;
54191;SDS011;40101;53.002;6.488;2024-03-23T10:42:10;7.78;;;1.83;;
54191;SDS011;40101;53.002;6.488;2024-03-23T10:44:36;10.20;;;2.00;;
54191;SDS011;40101;53.002;6.488;2024-03-23T10:47:03;5.50;;;1.63;;
54191;SDS011;40101;53.002;6.488;2024-03-23T10:49:33;5.10;;;1.45;;
54191;SDS011;40101;53.002;6.488;2024-03-23T10:52:00;6.35;;;2.17;;
54191;SDS011;40101;53.002;6.488;2024-03-23T10:54:31;4.20;;;1.00;;
54191;SDS011;40101;53.002;6.488;2024-03-23T10:59:43;4.15;;;1.30;;
54191;SDS011;40101;53.002;6.488;2024-03-23T11:02:20;3.40;;;1.75;;
54191;SDS011;40101;53.002;6.488;2024-03-23T11:04:51;1.75;;;0.93;;
54191;SDS011;40101;53.002;6.488;2024-03-23T11:09:49;5.90;;;2.05;;
54191;SDS011;40101;53.002;6.488;2024-03-23T11:14:53;2.97;;;1.90;;
54191;SDS011;40101;53.002;6.488;2024-03-23T11:17:29;6.15;;;1.70;;
54191;SDS011;40101;53.002;6.488;2024-03-23T11:20:00;5.40;;;2.28;;
54191;SDS011;40101;53.002;6.488;2024-03-23T11:25:14;5.20;;;2.63;;
54191;SDS011;40101;53.002;6.488;2024-03-23T11:27:51;1.98;;;1.05;;
54191;SDS011;40101;53.002;6.488;2024-03-23T11:30:24;4.00;;;1.63;;
54191;SDS011;40101;53.002;6.488;2024-03-23T11:32:55;3.90;;;1.40;;
54191;SDS011;40101;53.002;6.488;2024-03-23T11:35:28;5.95;;;1.63;;
54191;SDS011;40101;53.002;6.488;2024-03-23T11:38:03;5.07;;;1.77;;
54191;SDS011;40101;53.002;6.488;2024-03-23T11:40:40;3.90;;;1.55;;
54191;SDS011;40101;53.002;6.488;2024-03-23T11:43:12;7.78;;;2.10;;
54191;SDS011;40101;53.002;6.488;2024-03-23T11:45:39;5.65;;;1.20;;
54191;SDS011;40101;53.002;6.488;2024-03-23T11:48:13;7.25;;;1.92;;
54191;SDS011;40101;53.002;6.488;2024-03-23T11:50:44;4.78;;;1.50;;
54191;SDS011;40101;53.002;6.488;2024-03-23T11:55:42;6.30;;;1.75;;
54191;SDS011;40101;53.002;6.488;2024-03-23T11:58:28;5.60;;;1.65;;
54191;SDS011;40101;53.002;6.488;2024-03-23T12:00:58;5.40;;;1.17;;
54191;SDS011;40101;53.002;6.488;2024-03-23T12:03:27;3.05;;;1.45;;
54191;SDS011;40101;53.002;6.488;2024-03-23T12:05:54;3.95;;;1.33;;
54191;SDS011;40101;53.002;6.488;2024-03-23T12:08:34;5.03;;;2.03;;
54191;SDS011;40101;53.002;6.488;2024-03-23T12:13:42;3.55;;;3.25;;
54191;SDS011;40101;53.002;6.488;2024-03-23T12:16:13;6.10;;;4.03;;
54191;SDS011;40101;53.002;6.488;2024-03-23T12:18:41;4.45;;;3.55;;
54191;SDS011;40101;53.002;6.488;2024-03-23T12:21:08;3.53;;;1.58;;
54191;SDS011;40101;53.002;6.488;2024-03-23T12:23:34;2.47;;;1.30;;
54191;SDS011;40101;53.002;6.488;2024-03-23T12:26:03;4.28;;;1.40;;
54191;SDS011;40101;53.002;6.488;2024-03-23T12:28:34;5.70;;;2.10;;
54191;SDS011;40101;53.002;6.488;2024-03-23T12:31:03;6.35;;;1.98;;
54191;SDS011;40101;53.002;6.488;2024-03-23T12:33:30;8.75;;;3.60;;
54191;SDS011;40101;53.002;6.488;2024-03-23T12:35:56;10.13;;;3.60;;
54191;SDS011;40101;53.002;6.488;2024-03-23T12:38:22;15.82;;;3.08;;
54191;SDS011;40101;53.002;6.488;2024-03-23T12:40:48;8.70;;;3.25;;
54191;SDS011;40101;53.002;6.488;2024-03-23T12:43:14;5.07;;;2.22;;
54191;SDS011;40101;53.002;6.488;2024-03-23T12:45:40;6.13;;;2.63;;
54191;SDS011;40101;53.002;6.488;2024-03-23T12:48:11;9.10;;;2.58;;
54191;SDS011;40101;53.002;6.488;2024-03-23T12:50:36;7.93;;;1.85;;
54191;SDS011;40101;53.002;6.488;2024-03-23T12:53:02;9.52;;;2.33;;
54191;SDS011;40101;53.002;6.488;2024-03-23T12:55:28;8.57;;;2.22;;
54191;SDS011;40101;53.002;6.488;2024-03-23T12:58:03;8.88;;;2.03;;
54191;SDS011;40101;53.002;6.488;2024-03-23T13:00:29;14.57;;;2.22;;
54191;SDS011;40101;53.002;6.488;2024-03-23T13:03:13;5.63;;;1.85;;
54191;SDS011;40101;53.002;6.488;2024-03-23T13:05:56;8.85;;;2.95;;
54191;SDS011;40101;53.002;6.488;2024-03-23T13:08:22;3.85;;;2.00;;
54191;SDS011;40101;53.002;6.488;2024-03-23T13:10:51;5.97;;;2.58;;
54191;SDS011;40101;53.002;6.488;2024-03-23T13:13:17;8.90;;;6.25;;
54191;SDS011;40101;53.002;6.488;2024-03-23T13:15:49;11.95;;;11.00;;
54191;SDS011;40101;53.002;6.488;2024-03-23T13:18:19;9.40;;;8.25;;
54191;SDS011;40101;53.002;6.488;2024-03-23T13:20:45;8.95;;;4.82;;
54191;SDS011;40101;53.002;6.488;2024-03-23T13:23:10;8.23;;;2.30;;
54191;SDS011;40101;53.002;6.488;2024-03-23T13:25:39;10.05;;;2.17;;
54191;SDS011;40101;53.002;6.488;2024-03-23T13:28:05;9.23;;;3.08;;
54191;SDS011;40101;53.002;6.488;2024-03-23T13:30:31;12.85;;;3.17;;
54191;SDS011;40101;53.002;6.488;2024-03-23T13:32:56;9.32;;;4.97;;
54191;SDS011;40101;53.002;6.488;2024-03-23T13:35:22;12.10;;;8.30;;
54191;SDS011;40101;53.002;6.488;2024-03-23T13:37:48;10.25;;;7.40;;
54191;SDS011;40101;53.002;6.488;2024-03-23T13:40:14;19.83;;;6.82;;
54191;SDS011;40101;53.002;6.488;2024-03-23T13:42:39;10.55;;;6.97;;
54191;SDS011;40101;53.002;6.488;2024-03-23T13:45:30;9.05;;;8.23;;
54191;SDS011;40101;53.002;6.488;2024-03-23T13:47:56;9.43;;;7.50;;
54191;SDS011;40101;53.002;6.488;2024-03-23T13:50:22;10.30;;;4.95;;
54191;SDS011;40101;53.002;6.488;2024-03-23T13:52:47;18.08;;;5.55;;
54191;SDS011;40101;53.002;6.488;2024-03-23T13:55:13;7.95;;;3.10;;
54191;SDS011;40101;53.002;6.488;2024-03-23T13:57:40;9.63;;;2.75;;
54191;SDS011;40101;53.002;6.488;2024-03-23T14:00:07;8.88;;;3.00;;
54191;SDS011;40101;53.002;6.488;2024-03-23T14:02:35;7.93;;;4.35;;
54191;SDS011;40101;53.002;6.488;2024-03-23T14:05:03;6.50;;;2.92;;
54191;SDS011;40101;53.002;6.488;2024-03-23T14:07:29;7.90;;;2.70;;
54191;SDS011;40101;53.002;6.488;2024-03-23T14:10:03;10.88;;;2.30;;
54191;SDS011;40101;53.002;6.488;2024-03-23T14:12:31;12.23;;;2.90;;
54191;SDS011;40101;53.002;6.488;2024-03-23T14:14:57;12.05;;;2.50;;
54191;SDS011;40101;53.002;6.488;2024-03-23T14:17:23;14.02;;;3.40;;
54191;SDS011;40101;53.002;6.488;2024-03-23T14:19:48;11.20;;;3.05;;
54191;SDS011;40101;53.002;6.488;2024-03-23T14:22:22;9.10;;;3.00;;
54191;SDS011;40101;53.002;6.488;2024-03-23T14:24:48;9.57;;;2.47;;
54191;SDS011;40101;53.002;6.488;2024-03-23T14:27:13;8.60;;;3.40;;
54191;SDS011;40101;53.002;6.488;2024-03-23T14:29:39;10.40;;;2.90;;
54191;SDS011;40101;53.002;6.488;2024-03-23T14:32:05;12.93;;;3.25;;
54191;SDS011;40101;53.002;6.488;2024-03-23T14:34:31;11.10;;;2.58;;
54191;SDS011;40101;53.002;6.488;2024-03-23T14:36:56;16.10;;;3.25;;
54191;SDS011;40101;53.002;6.488;2024-03-23T14:39:25;10.30;;;3.08;;
54191;SDS011;40101;53.002;6.488;2024-03-23T14:41:50;11.05;;;3.90;;
54191;SDS011;40101;53.002;6.488;2024-03-23T14:44:16;15.48;;;3.17;;
54191;SDS011;40101;53.002;6.488;2024-03-23T14:46:42;14.00;;;2.72;;
54191;SDS011;40101;53.002;6.488;2024-03-23T14:49:08;10.13;;;3.28;;
54191;SDS011;40101;53.002;6.488;2024-03-23T14:51:34;11.80;;;2.42;;
54191;SDS011;40101;53.002;6.488;2024-03-23T14:54:02;12.23;;;2.58;;
54191;SDS011;40101;53.002;6.488;2024-03-23T14:56:28;6.50;;;1.63;;
54191;SDS011;40101;53.002;6.488;2024-03-23T14:58:53;4.30;;;1.10;;
54191;SDS011;40101;53.002;6.488;2024-03-23T15:01:20;3.42;;;1.30;;
54191;SDS011;40101;53.002;6.488;2024-03-23T15:03:46;9.95;;;1.63;;
54191;SDS011;40101;53.002;6.488;2024-03-23T15:06:12;13.27;;;2.35;;
54191;SDS011;40101;53.002;6.488;2024-03-23T15:08:38;5.45;;;1.95;;
54191;SDS011;40101;53.002;6.488;2024-03-23T15:11:05;10.77;;;2.08;;
54191;SDS011;40101;53.002;6.488;2024-03-23T15:13:34;8.00;;;2.63;;
54191;SDS011;40101;53.002;6.488;2024-03-23T15:16:03;9.82;;;2.20;;
54191;SDS011;40101;53.002;6.488;2024-03-23T15:18:31;11.55;;;1.98;;
54191;SDS011;40101;53.002;6.488;2024-03-23T15:20:58;7.40;;;2.25;;
54191;SDS011;40101;53.002;6.488;2024-03-23T15:23:28;19.48;;;3.38;;
54191;SDS011;40101;53.002;6.488;2024-03-23T15:28:21;11.52;;;2.20;;
54191;SDS011;40101;53.002;6.488;2024-03-23T15:30:51;9.38;;;1.85;;
54191;SDS011;40101;53.002;6.488;2024-03-23T15:33:16;10.95;;;2.47;;
54191;SDS011;40101;53.002;6.488;2024-03-23T15:35:42;6.38;;;2.95;;
54191;SDS011;40101;53.002;6.488;2024-03-23T15:38:11;4.78;;;2.05;;
54191;SDS011;40101;53.002;6.488;2024-03-23T15:40:36;3.65;;;2.03;;
54191;SDS011;40101;53.002;6.488;2024-03-23T15:43:02;6.50;;;2.42;;
54191;SDS011;40101;53.002;6.488;2024-03-23T15:45:28;5.43;;;2.45;;
54191;SDS011;40101;53.002;6.488;2024-03-23T15:47:56;5.30;;;2.33;;
54191;SDS011;40101;53.002;6.488;2024-03-23T15:50:27;4.55;;;1.67;;
54191;SDS011;40101;53.002;6.488;2024-03-23T15:52:53;6.20;;;1.88;;
54191;SDS011;40101;53.002;6.488;2024-03-23T15:55:31;6.85;;;1.27;;
54191;SDS011;40101;53.002;6.488;2024-03-23T15:58:00;7.07;;;2.05;;
54191;SDS011;40101;53.002;6.488;2024-03-23T16:00:29;7.70;;;1.75;;
54191;SDS011;40101;53.002;6.488;2024-03-23T16:02:55;3.50;;;1.35;;
54191;SDS011;40101;53.002;6.488;2024-03-23T16:05:20;3.25;;;1.48;;
54191;SDS011;40101;53.002;6.488;2024-03-23T16:07:49;6.10;;;2.10;;
54191;SDS011;40101;53.002;6.488;2024-03-23T16:10:15;11.68;;;3.03;;
54191;SDS011;40101;53.002;6.488;2024-03-23T16:12:42;5.68;;;3.45;;
54191;SDS011;40101;53.002;6.488;2024-03-23T16:15:17;7.05;;;1.95;;